CFG8SA EPGD-EDDF
Flight info
| Callsign | CFG8SA |
|---|---|
| Flight time | 1h 25m |
| Altitude | 35000 |
| Route | DEXIR T671 VEKON L730 UNVOX DCT ALUKA DCT KOSIX DCT NIMAB T171 LASTO T178 KERAX KERAX4D |
| Aircraft | A320/M-SDE3FGHIRWY/LB1 |
Departure
| Time | 2026-04-14 14:32 |
|---|---|
| Airport | Gdańsk Lech Wałęsa Airport (EPGD) |
Arrival
| Time | 2026-04-14 15:58 |
|---|---|
| Airport | Frankfurt Main Airport (EDDF) |
| Time | Latitude | Longitude | Altitude | Speed | Heading |
|---|---|---|---|---|---|
| 2026-04-14 13:44 | 54.38118 | 18.46617 | 456 ft | 0 kts | 22° |
| 2026-04-14 14:20 | 54.38117 | 18.46617 | 456 ft | 0 kts | 22° |
| 2026-04-14 14:26 | 54.38102 | 18.46607 | 455 ft | 3 kts | 15° |
| 2026-04-14 14:27 | 54.38083 | 18.46601 | 455 ft | 3 kts | 349° |
| 2026-04-14 14:27 | 54.38067 | 18.46612 | 456 ft | 2 kts | 300° |
| 2026-04-14 14:27 | 54.38065 | 18.46619 | 455 ft | 1 kts | 294° |
| 2026-04-14 14:29 | 54.38067 | 18.46608 | 456 ft | 5 kts | 293° |
| 2026-04-14 14:29 | 54.38105 | 18.46452 | 457 ft | 18 kts | 291° |
| 2026-04-14 14:30 | 54.38153 | 18.46261 | 454 ft | 17 kts | 294° |
| 2026-04-14 14:30 | 54.38158 | 18.46096 | 455 ft | 14 kts | 215° |
| 2026-04-14 14:30 | 54.38090 | 18.45988 | 454 ft | 16 kts | 269° |
| 2026-04-14 14:30 | 54.38140 | 18.45790 | 453 ft | 19 kts | 293° |
| 2026-04-14 14:31 | 54.38099 | 18.45627 | 454 ft | 16 kts | 205° |
| 2026-04-14 14:31 | 54.38010 | 18.45597 | 454 ft | 10 kts | 126° |
| 2026-04-14 14:31 | 54.37997 | 18.45648 | 455 ft | 0 kts | 112° |
| 2026-04-14 14:31 | 54.37963 | 18.45789 | 455 ft | 43 kts | 113° |
| 2026-04-14 14:32 | 54.37752 | 18.46640 | 456 ft | 109 kts | 113° |
| 2026-04-14 14:32 | 54.37388 | 18.48121 | 485 ft | 155 kts | 113° |
| 2026-04-14 14:32 | 54.36981 | 18.49802 | 1192 ft | 152 kts | 114° |
| 2026-04-14 14:32 | 54.36579 | 18.51506 | 1938 ft | 156 kts | 115° |
| 2026-04-14 14:33 | 54.36158 | 18.53219 | 2624 ft | 160 kts | 116° |
| 2026-04-14 14:33 | 54.35685 | 18.55081 | 2917 ft | 181 kts | 116° |
| 2026-04-14 14:33 | 54.35150 | 18.57184 | 3232 ft | 202 kts | 115° |
| 2026-04-14 14:33 | 54.34573 | 18.59471 | 3823 ft | 213 kts | 115° |
| 2026-04-14 14:34 | 54.33365 | 18.64224 | 5426 ft | 220 kts | 122° |
| 2026-04-14 14:34 | 54.32278 | 18.66009 | 6163 ft | 221 kts | 158° |
| 2026-04-14 14:34 | 54.30750 | 18.66195 | 6870 ft | 229 kts | 195° |
| 2026-04-14 14:35 | 54.29262 | 18.65187 | 7606 ft | 233 kts | 201° |
| 2026-04-14 14:35 | 54.27778 | 18.64088 | 8342 ft | 237 kts | 203° |
| 2026-04-14 14:35 | 54.26369 | 18.62602 | 9074 ft | 242 kts | 224° |
| 2026-04-14 14:35 | 54.25399 | 18.60249 | 9813 ft | 249 kts | 246° |
| 2026-04-14 14:36 | 54.25054 | 18.57235 | 10121 ft | 272 kts | 272° |
| 2026-04-14 14:36 | 54.25202 | 18.53919 | 10529 ft | 289 kts | 274° |
| 2026-04-14 14:36 | 54.25357 | 18.50342 | 10743 ft | 313 kts | 273° |
| 2026-04-14 14:36 | 54.25510 | 18.46502 | 10955 ft | 334 kts | 273° |
| 2026-04-14 14:37 | 54.25659 | 18.42484 | 11554 ft | 340 kts | 272° |
| 2026-04-14 14:37 | 54.25802 | 18.38433 | 12304 ft | 343 kts | 272° |
| 2026-04-14 14:37 | 54.25944 | 18.34350 | 13040 ft | 345 kts | 272° |
| 2026-04-14 14:37 | 54.26086 | 18.30246 | 13758 ft | 348 kts | 272° |
| 2026-04-14 14:38 | 54.26231 | 18.26080 | 14402 ft | 351 kts | 272° |
| 2026-04-14 14:38 | 54.26377 | 18.21885 | 15016 ft | 354 kts | 272° |
| 2026-04-14 14:38 | 54.26450 | 18.17651 | 15636 ft | 357 kts | 266° |
| 2026-04-14 14:38 | 54.26241 | 18.13412 | 16243 ft | 360 kts | 264° |
| 2026-04-14 14:39 | 54.26014 | 18.09137 | 16860 ft | 363 kts | 264° |
| 2026-04-14 14:39 | 54.25785 | 18.04876 | 17476 ft | 365 kts | 264° |
| 2026-04-14 14:39 | 54.25553 | 18.00537 | 18079 ft | 368 kts | 264° |
| 2026-04-14 14:39 | 54.25311 | 17.96098 | 18681 ft | 371 kts | 264° |
| 2026-04-14 14:40 | 54.25069 | 17.91753 | 19196 ft | 374 kts | 264° |
| 2026-04-14 14:40 | 54.24820 | 17.87310 | 19707 ft | 377 kts | 264° |
| 2026-04-14 14:40 | 54.24569 | 17.82824 | 20216 ft | 380 kts | 264° |
| 2026-04-14 14:40 | 54.24318 | 17.78304 | 20742 ft | 383 kts | 264° |
| 2026-04-14 14:41 | 54.24067 | 17.73758 | 21238 ft | 386 kts | 264° |
| 2026-04-14 14:41 | 54.23809 | 17.69163 | 21726 ft | 389 kts | 264° |
| 2026-04-14 14:41 | 54.23546 | 17.64530 | 22208 ft | 392 kts | 264° |
| 2026-04-14 14:41 | 54.23282 | 17.59879 | 22673 ft | 395 kts | 264° |
| 2026-04-14 14:42 | 54.23016 | 17.55189 | 23127 ft | 398 kts | 264° |
| 2026-04-14 14:42 | 54.22742 | 17.50456 | 23570 ft | 401 kts | 264° |
| 2026-04-14 14:42 | 54.22275 | 17.45743 | 23956 ft | 404 kts | 255° |
| 2026-04-14 14:42 | 54.21342 | 17.41196 | 24313 ft | 406 kts | 245° |
| 2026-04-14 14:43 | 54.20087 | 17.36862 | 24674 ft | 409 kts | 244° |
| 2026-04-14 14:43 | 54.18808 | 17.32520 | 25029 ft | 410 kts | 243° |
| 2026-04-14 14:43 | 54.17535 | 17.28203 | 25378 ft | 412 kts | 243° |
| 2026-04-14 14:43 | 54.16239 | 17.23813 | 25718 ft | 414 kts | 243° |
| 2026-04-14 14:44 | 54.14942 | 17.19414 | 26055 ft | 416 kts | 243° |
| 2026-04-14 14:44 | 54.13639 | 17.14993 | 26395 ft | 418 kts | 243° |
| 2026-04-14 14:44 | 54.12327 | 17.10549 | 26729 ft | 420 kts | 243° |
| 2026-04-14 14:44 | 54.11451 | 17.07586 | 26947 ft | 421 kts | 243° |
| 2026-04-14 14:45 | 54.10129 | 17.03120 | 27265 ft | 423 kts | 242° |
| 2026-04-14 14:45 | 54.08609 | 16.98810 | 27572 ft | 425 kts | 237° |
| 2026-04-14 14:45 | 54.06998 | 16.94575 | 27876 ft | 426 kts | 237° |
| 2026-04-14 14:45 | 54.05383 | 16.90334 | 28189 ft | 428 kts | 236° |
| 2026-04-14 14:46 | 54.03760 | 16.86077 | 28474 ft | 430 kts | 236° |
| 2026-04-14 14:46 | 54.02131 | 16.81813 | 28751 ft | 431 kts | 236° |
| 2026-04-14 14:46 | 54.00492 | 16.77535 | 29015 ft | 433 kts | 236° |
| 2026-04-14 14:46 | 53.98843 | 16.73241 | 29276 ft | 434 kts | 236° |
| 2026-04-14 14:47 | 53.97191 | 16.68941 | 29533 ft | 435 kts | 236° |
| 2026-04-14 14:47 | 53.95532 | 16.64630 | 29777 ft | 436 kts | 236° |
| 2026-04-14 14:47 | 53.93872 | 16.60321 | 30123 ft | 435 kts | 236° |
| 2026-04-14 14:47 | 53.92216 | 16.56024 | 30440 ft | 434 kts | 236° |
| 2026-04-14 14:48 | 53.90569 | 16.51753 | 30737 ft | 433 kts | 236° |
| 2026-04-14 14:48 | 53.88916 | 16.47486 | 31028 ft | 432 kts | 235° |
| 2026-04-14 14:48 | 53.87266 | 16.43241 | 31322 ft | 431 kts | 235° |
| 2026-04-14 14:48 | 53.85617 | 16.39005 | 31616 ft | 430 kts | 235° |
| 2026-04-14 14:49 | 53.83974 | 16.34788 | 31940 ft | 428 kts | 235° |
| 2026-04-14 14:49 | 53.82332 | 16.30583 | 32250 ft | 427 kts | 235° |
| 2026-04-14 14:49 | 53.80688 | 16.26384 | 32552 ft | 426 kts | 235° |
| 2026-04-14 14:49 | 53.79054 | 16.22218 | 32848 ft | 425 kts | 235° |
| 2026-04-14 14:50 | 53.77443 | 16.18113 | 33141 ft | 424 kts | 235° |
| 2026-04-14 14:50 | 53.75815 | 16.13966 | 33452 ft | 423 kts | 235° |
| 2026-04-14 14:50 | 53.74188 | 16.09831 | 33745 ft | 422 kts | 235° |
| 2026-04-14 14:50 | 53.72556 | 16.05691 | 34031 ft | 421 kts | 234° |
| 2026-04-14 14:51 | 53.70934 | 16.01579 | 34289 ft | 421 kts | 235° |
| 2026-04-14 14:51 | 53.69311 | 15.97472 | 34509 ft | 421 kts | 235° |
| 2026-04-14 14:51 | 53.67689 | 15.93374 | 34719 ft | 421 kts | 235° |
| 2026-04-14 14:51 | 53.66059 | 15.89269 | 34910 ft | 421 kts | 235° |
| 2026-04-14 14:52 | 53.64426 | 15.85167 | 35099 ft | 422 kts | 235° |
| 2026-04-14 14:52 | 53.61141 | 15.76927 | 35151 ft | 424 kts | 235° |
| 2026-04-14 14:53 | 53.57841 | 15.68672 | 35151 ft | 425 kts | 235° |
| 2026-04-14 14:53 | 53.54537 | 15.60408 | 35155 ft | 425 kts | 235° |
| 2026-04-14 14:54 | 53.51189 | 15.52184 | 35155 ft | 426 kts | 231° |
| 2026-04-14 14:54 | 53.47413 | 15.44519 | 35150 ft | 426 kts | 230° |
| 2026-04-14 14:55 | 53.43648 | 15.36905 | 35144 ft | 426 kts | 230° |
| 2026-04-14 14:55 | 53.39835 | 15.29201 | 35141 ft | 427 kts | 230° |
| 2026-04-14 14:56 | 53.34163 | 15.17789 | 35134 ft | 427 kts | 230° |
| 2026-04-14 14:56 | 53.30348 | 15.10168 | 35137 ft | 428 kts | 230° |
| 2026-04-14 14:57 | 53.26520 | 15.02534 | 35135 ft | 428 kts | 230° |
| 2026-04-14 14:57 | 53.22683 | 14.94913 | 35133 ft | 429 kts | 230° |
| 2026-04-14 14:58 | 53.18839 | 14.87292 | 35132 ft | 429 kts | 230° |
| 2026-04-14 14:58 | 53.14988 | 14.79667 | 35131 ft | 430 kts | 230° |
| 2026-04-14 14:59 | 53.11130 | 14.72060 | 35131 ft | 430 kts | 230° |
| 2026-04-14 14:59 | 53.07257 | 14.64453 | 35133 ft | 431 kts | 230° |
| 2026-04-14 15:00 | 53.03375 | 14.56849 | 35130 ft | 431 kts | 230° |
| 2026-04-14 15:00 | 52.99479 | 14.49260 | 35128 ft | 432 kts | 229° |
| 2026-04-14 15:01 | 52.95586 | 14.41679 | 35133 ft | 432 kts | 229° |
| 2026-04-14 15:01 | 52.91684 | 14.34098 | 35140 ft | 432 kts | 230° |
| 2026-04-14 15:02 | 52.87774 | 14.26537 | 35141 ft | 433 kts | 229° |
| 2026-04-14 15:02 | 52.83836 | 14.18998 | 35144 ft | 433 kts | 229° |
| 2026-04-14 15:03 | 52.79887 | 14.11475 | 35142 ft | 433 kts | 229° |
| 2026-04-14 15:03 | 52.75936 | 14.03958 | 35146 ft | 433 kts | 229° |
| 2026-04-14 15:04 | 52.71977 | 13.96444 | 35146 ft | 433 kts | 229° |
| 2026-04-14 15:04 | 52.68016 | 13.88946 | 35149 ft | 434 kts | 229° |
| 2026-04-14 15:05 | 52.64044 | 13.81456 | 35151 ft | 434 kts | 229° |
| 2026-04-14 15:05 | 52.60087 | 13.74024 | 35154 ft | 434 kts | 229° |
| 2026-04-14 15:06 | 52.56104 | 13.66564 | 35156 ft | 434 kts | 229° |
| 2026-04-14 15:06 | 52.52118 | 13.59104 | 35157 ft | 434 kts | 229° |
| 2026-04-14 15:07 | 52.48121 | 13.51647 | 35157 ft | 435 kts | 229° |
| 2026-04-14 15:07 | 52.44121 | 13.44211 | 35158 ft | 435 kts | 229° |
| 2026-04-14 15:08 | 52.40113 | 13.36788 | 35159 ft | 435 kts | 229° |
| 2026-04-14 15:08 | 52.36099 | 13.29368 | 35159 ft | 435 kts | 229° |
| 2026-04-14 15:09 | 52.32084 | 13.21961 | 35157 ft | 435 kts | 229° |
| 2026-04-14 15:09 | 52.28058 | 13.14573 | 35160 ft | 435 kts | 229° |
| 2026-04-14 15:10 | 52.24019 | 13.07193 | 35158 ft | 436 kts | 229° |
| 2026-04-14 15:10 | 52.19974 | 12.99818 | 35159 ft | 436 kts | 229° |
| 2026-04-14 15:11 | 52.15951 | 12.92499 | 35160 ft | 436 kts | 229° |
| 2026-04-14 15:11 | 52.11894 | 12.85129 | 35163 ft | 437 kts | 229° |
| 2026-04-14 15:12 | 52.07837 | 12.77774 | 35162 ft | 437 kts | 229° |
| 2026-04-14 15:12 | 52.03763 | 12.70435 | 35166 ft | 437 kts | 229° |
| 2026-04-14 15:13 | 51.99691 | 12.63107 | 35167 ft | 437 kts | 229° |
| 2026-04-14 15:13 | 51.95609 | 12.55780 | 35174 ft | 438 kts | 229° |
| 2026-04-14 15:14 | 51.91509 | 12.48453 | 35173 ft | 438 kts | 229° |
| 2026-04-14 15:14 | 51.87188 | 12.41581 | 35177 ft | 439 kts | 223° |
| 2026-04-14 15:15 | 51.82659 | 12.34944 | 35174 ft | 439 kts | 223° |
| 2026-04-14 15:15 | 51.78092 | 12.28278 | 35180 ft | 440 kts | 223° |
| 2026-04-14 15:16 | 51.73553 | 12.21658 | 35174 ft | 440 kts | 223° |
| 2026-04-14 15:16 | 51.69012 | 12.15043 | 35178 ft | 440 kts | 223° |
| 2026-04-14 15:17 | 51.64489 | 12.08472 | 35179 ft | 441 kts | 224° |
| 2026-04-14 15:17 | 51.60640 | 12.00876 | 35178 ft | 438 kts | 238° |
| 2026-04-14 15:18 | 51.57313 | 11.92657 | 35176 ft | 439 kts | 238° |
| 2026-04-14 15:18 | 51.53973 | 11.84459 | 35175 ft | 439 kts | 238° |
| 2026-04-14 15:19 | 51.50615 | 11.76237 | 35174 ft | 440 kts | 238° |
| 2026-04-14 15:19 | 51.47253 | 11.68020 | 35179 ft | 440 kts | 238° |
| 2026-04-14 15:20 | 51.43885 | 11.59822 | 35179 ft | 440 kts | 238° |
| 2026-04-14 15:20 | 51.40509 | 11.51638 | 35183 ft | 440 kts | 238° |
| 2026-04-14 15:21 | 51.36629 | 11.44044 | 35180 ft | 443 kts | 223° |
| 2026-04-14 15:21 | 51.31979 | 11.37552 | 35177 ft | 444 kts | 223° |
| 2026-04-14 15:22 | 51.27355 | 11.31106 | 35175 ft | 444 kts | 223° |
| 2026-04-14 15:22 | 51.22685 | 11.24605 | 35176 ft | 445 kts | 223° |
| 2026-04-14 15:23 | 51.18015 | 11.18135 | 35176 ft | 445 kts | 223° |
| 2026-04-14 15:23 | 51.13492 | 11.11412 | 35100 ft | 444 kts | 232° |
| 2026-04-14 15:24 | 51.11685 | 11.07456 | 34856 ft | 442 kts | 240° |
| 2026-04-14 15:24 | 51.10214 | 11.03177 | 34622 ft | 441 kts | 243° |
| 2026-04-14 15:24 | 51.08773 | 10.98878 | 34385 ft | 441 kts | 243° |
| 2026-04-14 15:24 | 51.07317 | 10.94575 | 34142 ft | 441 kts | 243° |
| 2026-04-14 15:25 | 51.05857 | 10.90291 | 33869 ft | 441 kts | 243° |
| 2026-04-14 15:25 | 51.04391 | 10.86009 | 33595 ft | 441 kts | 243° |
| 2026-04-14 15:25 | 51.02916 | 10.81719 | 33189 ft | 441 kts | 243° |
| 2026-04-14 15:25 | 51.01436 | 10.77422 | 32062 ft | 446 kts | 242° |
| 2026-04-14 15:26 | 50.99950 | 10.73103 | 31115 ft | 446 kts | 242° |
| 2026-04-14 15:26 | 50.98458 | 10.68766 | 29969 ft | 449 kts | 242° |
| 2026-04-14 15:26 | 50.96979 | 10.64472 | 29133 ft | 444 kts | 242° |
| 2026-04-14 15:26 | 50.95516 | 10.60229 | 28584 ft | 434 kts | 242° |
| 2026-04-14 15:27 | 50.94071 | 10.56044 | 27901 ft | 429 kts | 242° |
| 2026-04-14 15:27 | 50.93112 | 10.53265 | 27461 ft | 425 kts | 242° |
| 2026-04-14 15:27 | 50.91620 | 10.49256 | 26813 ft | 420 kts | 235° |
| 2026-04-14 15:27 | 50.89761 | 10.45721 | 26187 ft | 416 kts | 225° |
| 2026-04-14 15:28 | 50.87545 | 10.42779 | 25550 ft | 414 kts | 216° |
| 2026-04-14 15:28 | 50.85059 | 10.40537 | 24925 ft | 412 kts | 205° |
| 2026-04-14 15:28 | 50.82441 | 10.38857 | 24309 ft | 409 kts | 203° |
| 2026-04-14 15:28 | 50.79800 | 10.37190 | 23677 ft | 412 kts | 203° |
| 2026-04-14 15:29 | 50.77131 | 10.35493 | 22997 ft | 411 kts | 203° |
| 2026-04-14 15:29 | 50.74510 | 10.33829 | 22453 ft | 402 kts | 203° |
| 2026-04-14 15:29 | 50.71928 | 10.32191 | 21897 ft | 398 kts | 203° |
| 2026-04-14 15:29 | 50.69383 | 10.30542 | 21379 ft | 393 kts | 206° |
| 2026-04-14 15:30 | 50.67046 | 10.28381 | 20878 ft | 387 kts | 217° |
| 2026-04-14 15:30 | 50.65048 | 10.25595 | 20410 ft | 382 kts | 228° |
| 2026-04-14 15:30 | 50.63438 | 10.22308 | 19950 ft | 377 kts | 238° |
| 2026-04-14 15:30 | 50.62168 | 10.18720 | 19502 ft | 373 kts | 242° |
| 2026-04-14 15:31 | 50.60936 | 10.15157 | 19046 ft | 370 kts | 242° |
| 2026-04-14 15:31 | 50.59704 | 10.11612 | 18588 ft | 367 kts | 242° |
| 2026-04-14 15:31 | 50.58479 | 10.08106 | 18089 ft | 365 kts | 242° |
| 2026-04-14 15:31 | 50.57264 | 10.04631 | 17612 ft | 361 kts | 242° |
| 2026-04-14 15:32 | 50.56058 | 10.01182 | 17145 ft | 358 kts | 242° |
| 2026-04-14 15:32 | 50.54863 | 9.97757 | 16663 ft | 355 kts | 243° |
| 2026-04-14 15:32 | 50.53874 | 9.94215 | 16172 ft | 353 kts | 252° |
| 2026-04-14 15:32 | 50.53204 | 9.90518 | 15697 ft | 351 kts | 255° |
| 2026-04-14 15:33 | 50.52549 | 9.86834 | 15200 ft | 349 kts | 255° |
| 2026-04-14 15:33 | 50.51889 | 9.83169 | 14711 ft | 348 kts | 254° |
| 2026-04-14 15:33 | 50.51226 | 9.79518 | 14216 ft | 347 kts | 254° |
| 2026-04-14 15:33 | 50.50563 | 9.75880 | 13689 ft | 346 kts | 254° |
| 2026-04-14 15:34 | 50.49906 | 9.72257 | 13180 ft | 343 kts | 255° |
| 2026-04-14 15:34 | 50.49274 | 9.68661 | 12676 ft | 341 kts | 255° |
| 2026-04-14 15:34 | 50.48657 | 9.65080 | 12171 ft | 338 kts | 255° |
| 2026-04-14 15:34 | 50.48059 | 9.61580 | 11666 ft | 336 kts | 255° |
| 2026-04-14 15:35 | 50.47458 | 9.58052 | 11262 ft | 335 kts | 255° |
| 2026-04-14 15:35 | 50.46832 | 9.54512 | 11162 ft | 336 kts | 254° |
| 2026-04-14 15:35 | 50.46170 | 9.50936 | 11184 ft | 337 kts | 253° |
| 2026-04-14 15:35 | 50.45506 | 9.47451 | 11185 ft | 338 kts | 253° |
| 2026-04-14 15:36 | 50.44825 | 9.43912 | 11191 ft | 338 kts | 253° |
| 2026-04-14 15:36 | 50.44147 | 9.40383 | 11189 ft | 337 kts | 253° |
| 2026-04-14 15:36 | 50.43470 | 9.36856 | 11084 ft | 338 kts | 253° |
| 2026-04-14 15:36 | 50.42816 | 9.33437 | 10898 ft | 315 kts | 253° |
| 2026-04-14 15:37 | 50.42213 | 9.30273 | 10735 ft | 291 kts | 253° |
| 2026-04-14 15:37 | 50.41536 | 9.27406 | 10565 ft | 273 kts | 242° |
| 2026-04-14 15:37 | 50.40498 | 9.24947 | 10392 ft | 270 kts | 230° |
| 2026-04-14 15:37 | 50.39136 | 9.22944 | 10140 ft | 268 kts | 216° |
| 2026-04-14 15:38 | 50.37564 | 9.21381 | 9886 ft | 267 kts | 212° |
| 2026-04-14 15:38 | 50.35982 | 9.19861 | 9721 ft | 267 kts | 213° |
| 2026-04-14 15:38 | 50.34403 | 9.18341 | 9582 ft | 267 kts | 212° |
| 2026-04-14 15:38 | 50.32817 | 9.16812 | 9443 ft | 267 kts | 212° |
| 2026-04-14 15:39 | 50.31235 | 9.15286 | 9312 ft | 268 kts | 212° |
| 2026-04-14 15:39 | 50.29642 | 9.13747 | 9186 ft | 269 kts | 212° |
| 2026-04-14 15:39 | 50.28101 | 9.12008 | 9046 ft | 277 kts | 224° |
| 2026-04-14 15:39 | 50.26887 | 9.09679 | 8917 ft | 278 kts | 239° |
| 2026-04-14 15:40 | 50.26096 | 9.06921 | 8789 ft | 279 kts | 251° |
| 2026-04-14 15:40 | 50.25443 | 9.04067 | 8652 ft | 279 kts | 251° |
| 2026-04-14 15:40 | 50.24781 | 9.01208 | 8531 ft | 280 kts | 251° |
| 2026-04-14 15:40 | 50.24114 | 8.98355 | 8395 ft | 280 kts | 251° |
| 2026-04-14 15:41 | 50.23451 | 8.95538 | 8269 ft | 280 kts | 251° |
| 2026-04-14 15:41 | 50.22779 | 8.92684 | 8179 ft | 279 kts | 251° |
| 2026-04-14 15:41 | 50.22106 | 8.89832 | 8186 ft | 280 kts | 251° |
| 2026-04-14 15:41 | 50.21433 | 8.86975 | 8188 ft | 280 kts | 251° |
| 2026-04-14 15:42 | 50.20763 | 8.84117 | 8190 ft | 280 kts | 251° |
| 2026-04-14 15:42 | 50.20094 | 8.81260 | 8193 ft | 280 kts | 251° |
| 2026-04-14 15:42 | 50.19420 | 8.78399 | 8191 ft | 280 kts | 251° |
| 2026-04-14 15:42 | 50.18751 | 8.75572 | 8185 ft | 272 kts | 251° |
| 2026-04-14 15:43 | 50.18114 | 8.72887 | 8188 ft | 256 kts | 251° |
| 2026-04-14 15:43 | 50.17507 | 8.70333 | 8193 ft | 248 kts | 251° |
| 2026-04-14 15:43 | 50.16908 | 8.67809 | 8193 ft | 247 kts | 251° |
| 2026-04-14 15:43 | 50.16309 | 8.65295 | 8193 ft | 247 kts | 251° |
| 2026-04-14 15:44 | 50.15709 | 8.62777 | 8163 ft | 248 kts | 251° |
| 2026-04-14 15:44 | 50.15303 | 8.61073 | 7982 ft | 247 kts | 251° |
| 2026-04-14 15:44 | 50.15273 | 8.60946 | 7970 ft | 247 kts | 251° |
| 2026-04-14 15:44 | 50.14622 | 8.58351 | 7707 ft | 248 kts | 251° |
| 2026-04-14 15:45 | 50.14020 | 8.55842 | 7452 ft | 247 kts | 251° |
| 2026-04-14 15:45 | 50.13430 | 8.53339 | 7204 ft | 246 kts | 251° |
| 2026-04-14 15:45 | 50.12840 | 8.50834 | 6954 ft | 246 kts | 251° |
| 2026-04-14 15:45 | 50.12249 | 8.48337 | 6708 ft | 245 kts | 251° |
| 2026-04-14 15:46 | 50.11654 | 8.45845 | 6452 ft | 245 kts | 251° |
| 2026-04-14 15:46 | 50.11059 | 8.43359 | 6188 ft | 244 kts | 251° |
| 2026-04-14 15:46 | 50.10465 | 8.40887 | 5928 ft | 243 kts | 251° |
| 2026-04-14 15:46 | 50.09873 | 8.38428 | 5666 ft | 242 kts | 251° |
| 2026-04-14 15:47 | 50.09283 | 8.35981 | 5406 ft | 241 kts | 251° |
| 2026-04-14 15:47 | 50.08693 | 8.33547 | 5150 ft | 240 kts | 251° |
| 2026-04-14 15:47 | 50.08112 | 8.31155 | 5007 ft | 239 kts | 251° |
| 2026-04-14 15:47 | 50.07527 | 8.28739 | 5006 ft | 238 kts | 251° |
| 2026-04-14 15:48 | 50.06939 | 8.26322 | 5004 ft | 239 kts | 251° |
| 2026-04-14 15:48 | 50.06350 | 8.23898 | 5011 ft | 239 kts | 251° |
| 2026-04-14 15:48 | 50.05764 | 8.21480 | 5008 ft | 240 kts | 251° |
| 2026-04-14 15:48 | 50.05172 | 8.19048 | 5008 ft | 240 kts | 251° |
| 2026-04-14 15:49 | 50.04579 | 8.16620 | 5008 ft | 240 kts | 251° |
| 2026-04-14 15:49 | 50.03985 | 8.14198 | 5009 ft | 240 kts | 251° |
| 2026-04-14 15:49 | 50.03392 | 8.11769 | 5009 ft | 240 kts | 251° |
| 2026-04-14 15:49 | 50.02799 | 8.09348 | 5010 ft | 240 kts | 251° |
| 2026-04-14 15:50 | 50.02204 | 8.06931 | 5008 ft | 240 kts | 249° |
| 2026-04-14 15:50 | 50.01277 | 8.04806 | 5012 ft | 241 kts | 220° |
| 2026-04-14 15:50 | 49.99771 | 8.03722 | 5017 ft | 242 kts | 187° |
| 2026-04-14 15:50 | 49.98111 | 8.03897 | 5015 ft | 241 kts | 167° |
| 2026-04-14 15:51 | 49.96478 | 8.04512 | 5007 ft | 242 kts | 164° |
| 2026-04-14 15:51 | 49.94959 | 8.05560 | 5012 ft | 238 kts | 138° |
| 2026-04-14 15:51 | 49.94008 | 8.07600 | 5015 ft | 234 kts | 110° |
| 2026-04-14 15:51 | 49.93738 | 8.10039 | 5011 ft | 229 kts | 76° |
| 2026-04-14 15:52 | 49.94437 | 8.12212 | 5017 ft | 227 kts | 52° |
| 2026-04-14 15:52 | 49.95206 | 8.14356 | 5007 ft | 229 kts | 67° |
| 2026-04-14 15:52 | 49.95738 | 8.16644 | 4986 ft | 219 kts | 69° |
| 2026-04-14 15:52 | 49.96249 | 8.18827 | 4762 ft | 213 kts | 67° |
| 2026-04-14 15:53 | 49.96765 | 8.20967 | 4483 ft | 210 kts | 67° |
| 2026-04-14 15:53 | 49.97274 | 8.23061 | 4182 ft | 204 kts | 67° |
| 2026-04-14 15:53 | 49.97767 | 8.25093 | 3887 ft | 197 kts | 67° |
| 2026-04-14 15:53 | 49.98239 | 8.27043 | 3637 ft | 188 kts | 68° |
| 2026-04-14 15:54 | 49.99119 | 8.30677 | 3089 ft | 174 kts | 67° |
| 2026-04-14 15:54 | 49.99536 | 8.32400 | 2848 ft | 172 kts | 67° |
| 2026-04-14 15:54 | 49.99955 | 8.34132 | 2601 ft | 171 kts | 67° |
| 2026-04-14 15:55 | 50.00373 | 8.35860 | 2351 ft | 170 kts | 68° |
| 2026-04-14 15:55 | 50.00785 | 8.37570 | 2126 ft | 163 kts | 68° |
| 2026-04-14 15:55 | 50.01165 | 8.39162 | 1871 ft | 152 kts | 68° |
| 2026-04-14 15:55 | 50.01514 | 8.40656 | 1643 ft | 143 kts | 67° |
| 2026-04-14 15:56 | 50.01856 | 8.42090 | 1412 ft | 139 kts | 67° |
| 2026-04-14 15:56 | 50.02211 | 8.43505 | 1195 ft | 141 kts | 66° |
| 2026-04-14 15:56 | 50.02567 | 8.44932 | 1038 ft | 141 kts | 67° |
| 2026-04-14 15:56 | 50.02911 | 8.46365 | 850 ft | 141 kts | 67° |
| 2026-04-14 15:57 | 50.03256 | 8.47792 | 649 ft | 141 kts | 66° |
| 2026-04-14 15:57 | 50.03592 | 8.49227 | 431 ft | 141 kts | 68° |
| 2026-04-14 15:57 | 50.03916 | 8.50623 | 327 ft | 127 kts | 67° |
| 2026-04-14 15:57 | 50.04181 | 8.51692 | 334 ft | 81 kts | 69° |
| 2026-04-14 15:58 | 50.04336 | 8.52338 | 342 ft | 56 kts | 69° |
| 2026-04-14 15:58 | 50.04393 | 8.52830 | 352 ft | 29 kts | 99° |
| 2026-04-14 15:58 | 50.04357 | 8.53129 | 358 ft | 27 kts | 98° |
| 2026-04-14 15:58 | 50.04371 | 8.53387 | 372 ft | 22 kts | 72° |
| 2026-04-14 15:59 | 50.04401 | 8.53605 | 375 ft | 21 kts | 84° |
| 2026-04-14 15:59 | 50.04417 | 8.53839 | 375 ft | 23 kts | 84° |
| 2026-04-14 15:59 | 50.04434 | 8.54091 | 375 ft | 24 kts | 84° |
| 2026-04-14 15:59 | 50.04453 | 8.54363 | 373 ft | 27 kts | 84° |
| 2026-04-14 16:00 | 50.04403 | 8.54659 | 365 ft | 31 kts | 124° |
| 2026-04-14 16:00 | 50.04222 | 8.54823 | 356 ft | 30 kts | 158° |
| 2026-04-14 16:00 | 50.04065 | 8.54913 | 357 ft | 19 kts | 159° |
| 2026-04-14 16:00 | 50.04028 | 8.55058 | 361 ft | 17 kts | 69° |
| 2026-04-14 16:01 | 50.04071 | 8.55239 | 356 ft | 19 kts | 69° |
| 2026-04-14 16:01 | 50.04121 | 8.55445 | 353 ft | 22 kts | 70° |
| 2026-04-14 16:01 | 50.04174 | 8.55673 | 357 ft | 23 kts | 69° |
| 2026-04-14 16:01 | 50.04232 | 8.55909 | 356 ft | 24 kts | 69° |
| 2026-04-14 16:02 | 50.04292 | 8.56157 | 358 ft | 25 kts | 70° |
| 2026-04-14 16:02 | 50.04351 | 8.56410 | 357 ft | 26 kts | 70° |
| 2026-04-14 16:02 | 50.04415 | 8.56674 | 361 ft | 26 kts | 69° |
| 2026-04-14 16:02 | 50.04409 | 8.56843 | 360 ft | 14 kts | 165° |
| 2026-04-14 16:03 | 50.04288 | 8.56844 | 361 ft | 18 kts | 136° |
| 2026-04-14 16:03 | 50.04304 | 8.57021 | 362 ft | 18 kts | 68° |
| 2026-04-14 16:03 | 50.04348 | 8.57205 | 363 ft | 19 kts | 70° |
| 2026-04-14 16:03 | 50.04397 | 8.57406 | 361 ft | 21 kts | 69° |
| 2026-04-14 16:04 | 50.04448 | 8.57622 | 367 ft | 21 kts | 68° |
| 2026-04-14 16:04 | 50.04501 | 8.57844 | 370 ft | 23 kts | 70° |
| 2026-04-14 16:04 | 50.04558 | 8.58086 | 367 ft | 25 kts | 70° |
| 2026-04-14 16:04 | 50.04617 | 8.58334 | 370 ft | 24 kts | 69° |
| 2026-04-14 16:05 | 50.04677 | 8.58585 | 371 ft | 25 kts | 69° |
| 2026-04-14 16:05 | 50.04745 | 8.58843 | 368 ft | 24 kts | 69° |
| 2026-04-14 16:05 | 50.04786 | 8.58939 | 369 ft | 8 kts | 359° |
| 2026-04-14 16:05 | 50.04821 | 8.58918 | 368 ft | 1 kts | 339° |
| 2026-04-14 16:06 | 50.04833 | 8.58911 | 369 ft | 3 kts | 340° |
| 2026-04-14 16:06 | 50.04851 | 8.58901 | 366 ft | 2 kts | 339° |
| 2026-04-14 16:06 | 50.04852 | 8.58900 | 366 ft | 0 kts | 339° |